sensor_id;sensor_type;location;lat;lon;timestamp;P1;durP1;ratioP1;P2;durP2;ratioP2
22768;SDS011;13001;51.968;5.918;2022-12-26T00:01:00;129.50;;;121.17;;
22768;SDS011;13001;51.968;5.918;2022-12-26T00:03:23;123.40;;;115.50;;
22768;SDS011;13001;51.968;5.918;2022-12-26T00:05:51;124.60;;;116.47;;
22768;SDS011;13001;51.968;5.918;2022-12-26T00:08:18;123.80;;;115.60;;
22768;SDS011;13001;51.968;5.918;2022-12-26T00:10:46;120.95;;;112.85;;
22768;SDS011;13001;51.968;5.918;2022-12-26T00:13:13;119.77;;;111.85;;
22768;SDS011;13001;51.968;5.918;2022-12-26T00:15:40;124.12;;;115.50;;
22768;SDS011;13001;51.968;5.918;2022-12-26T00:18:08;120.55;;;112.40;;
22768;SDS011;13001;51.968;5.918;2022-12-26T00:20:35;118.53;;;110.50;;
22768;SDS011;13001;51.968;5.918;2022-12-26T00:23:02;123.90;;;115.40;;
22768;SDS011;13001;51.968;5.918;2022-12-26T00:25:31;120.28;;;112.08;;
22768;SDS011;13001;51.968;5.918;2022-12-26T00:27:59;119.57;;;111.35;;
22768;SDS011;13001;51.968;5.918;2022-12-26T00:30:27;122.65;;;114.10;;
22768;SDS011;13001;51.968;5.918;2022-12-26T00:32:54;117.33;;;109.05;;
22768;SDS011;13001;51.968;5.918;2022-12-26T00:35:21;118.25;;;109.57;;
22768;SDS011;13001;51.968;5.918;2022-12-26T00:37:49;118.05;;;109.67;;
22768;SDS011;13001;51.968;5.918;2022-12-26T00:40:16;118.42;;;110.10;;
22768;SDS011;13001;51.968;5.918;2022-12-26T00:42:43;118.30;;;109.80;;
22768;SDS011;13001;51.968;5.918;2022-12-26T00:45:11;116.93;;;108.57;;
22768;SDS011;13001;51.968;5.918;2022-12-26T00:47:38;118.20;;;109.63;;
22768;SDS011;13001;51.968;5.918;2022-12-26T00:50:05;118.02;;;109.78;;
22768;SDS011;13001;51.968;5.918;2022-12-26T00:52:33;114.03;;;106.22;;
22768;SDS011;13001;51.968;5.918;2022-12-26T00:55:00;118.65;;;110.30;;
22768;SDS011;13001;51.968;5.918;2022-12-26T00:57:27;116.22;;;108.15;;
22768;SDS011;13001;51.968;5.918;2022-12-26T00:59:54;117.93;;;109.85;;
22768;SDS011;13001;51.968;5.918;2022-12-26T01:02:22;119.37;;;111.07;;
22768;SDS011;13001;51.968;5.918;2022-12-26T01:05:05;121.65;;;113.22;;
22768;SDS011;13001;51.968;5.918;2022-12-26T01:07:33;118.62;;;110.30;;
22768;SDS011;13001;51.968;5.918;2022-12-26T01:10:02;115.65;;;107.65;;
22768;SDS011;13001;51.968;5.918;2022-12-26T01:12:30;120.37;;;111.97;;
22768;SDS011;13001;51.968;5.918;2022-12-26T01:14:57;112.62;;;104.92;;
22768;SDS011;13001;51.968;5.918;2022-12-26T01:17:28;116.05;;;108.05;;
22768;SDS011;13001;51.968;5.918;2022-12-26T01:19:55;118.13;;;109.80;;
22768;SDS011;13001;51.968;5.918;2022-12-26T01:22:23;113.63;;;105.70;;
22768;SDS011;13001;51.968;5.918;2022-12-26T01:24:57;117.28;;;109.10;;
22768;SDS011;13001;51.968;5.918;2022-12-26T01:27:24;115.60;;;107.67;;
22768;SDS011;13001;51.968;5.918;2022-12-26T01:29:52;112.88;;;105.05;;
22768;SDS011;13001;51.968;5.918;2022-12-26T01:32:19;110.22;;;102.62;;
22768;SDS011;13001;51.968;5.918;2022-12-26T01:34:47;113.63;;;105.63;;
22768;SDS011;13001;51.968;5.918;2022-12-26T01:37:16;113.50;;;105.60;;
22768;SDS011;13001;51.968;5.918;2022-12-26T01:39:44;113.42;;;105.72;;
22768;SDS011;13001;51.968;5.918;2022-12-26T01:42:12;113.40;;;105.50;;
22768;SDS011;13001;51.968;5.918;2022-12-26T01:47:29;111.15;;;103.70;;
22768;SDS011;13001;51.968;5.918;2022-12-26T01:49:53;111.37;;;103.93;;
22768;SDS011;13001;51.968;5.918;2022-12-26T01:52:32;109.65;;;102.25;;
22768;SDS011;13001;51.968;5.918;2022-12-26T01:54:59;112.72;;;105.27;;
22768;SDS011;13001;51.968;5.918;2022-12-26T01:57:27;110.12;;;102.97;;
22768;SDS011;13001;51.968;5.918;2022-12-26T01:59:56;121.57;;;113.52;;
22768;SDS011;13001;51.968;5.918;2022-12-26T02:02:25;133.57;;;124.75;;
22768;SDS011;13001;51.968;5.918;2022-12-26T02:04:53;136.40;;;127.45;;
22768;SDS011;13001;51.968;5.918;2022-12-26T02:07:41;135.00;;;126.18;;
22768;SDS011;13001;51.968;5.918;2022-12-26T02:10:15;136.35;;;127.32;;
22768;SDS011;13001;51.968;5.918;2022-12-26T02:12:38;125.47;;;117.20;;
22768;SDS011;13001;51.968;5.918;2022-12-26T02:15:07;124.42;;;116.08;;
22768;SDS011;13001;51.968;5.918;2022-12-26T02:17:35;122.55;;;114.05;;
22768;SDS011;13001;51.968;5.918;2022-12-26T02:22:40;122.87;;;114.77;;
22768;SDS011;13001;51.968;5.918;2022-12-26T02:25:11;119.33;;;111.45;;
22768;SDS011;13001;51.968;5.918;2022-12-26T02:27:41;118.97;;;111.22;;
22768;SDS011;13001;51.968;5.918;2022-12-26T02:33:00;117.00;;;109.17;;
22768;SDS011;13001;51.968;5.918;2022-12-26T02:38:00;111.03;;;103.53;;
22768;SDS011;13001;51.968;5.918;2022-12-26T02:43:09;113.08;;;105.03;;
22768;SDS011;13001;51.968;5.918;2022-12-26T02:45:38;108.17;;;100.78;;
22768;SDS011;13001;51.968;5.918;2022-12-26T02:48:29;108.13;;;100.80;;
22768;SDS011;13001;51.968;5.918;2022-12-26T02:50:58;110.20;;;102.35;;
22768;SDS011;13001;51.968;5.918;2022-12-26T02:53:45;114.20;;;106.47;;
22768;SDS011;13001;51.968;5.918;2022-12-26T02:56:31;116.35;;;108.57;;
22768;SDS011;13001;51.968;5.918;2022-12-26T03:02:02;113.20;;;105.55;;
22768;SDS011;13001;51.968;5.918;2022-12-26T03:04:48;113.45;;;105.72;;
22768;SDS011;13001;51.968;5.918;2022-12-26T03:07:35;108.57;;;101.13;;
22768;SDS011;13001;51.968;5.918;2022-12-26T03:10:23;108.70;;;101.40;;
22768;SDS011;13001;51.968;5.918;2022-12-26T03:13:13;111.20;;;103.60;;
22768;SDS011;13001;51.968;5.918;2022-12-26T03:15:48;118.57;;;110.55;;
22768;SDS011;13001;51.968;5.918;2022-12-26T03:18:31;118.25;;;110.50;;
22768;SDS011;13001;51.968;5.918;2022-12-26T03:21:00;111.05;;;103.75;;
22768;SDS011;13001;51.968;5.918;2022-12-26T03:23:28;112.72;;;105.03;;
22768;SDS011;13001;51.968;5.918;2022-12-26T03:25:58;121.30;;;113.17;;
22768;SDS011;13001;51.968;5.918;2022-12-26T03:28:43;126.55;;;118.25;;
22768;SDS011;13001;51.968;5.918;2022-12-26T03:31:13;126.40;;;118.00;;
22768;SDS011;13001;51.968;5.918;2022-12-26T03:33:42;126.95;;;118.50;;
22768;SDS011;13001;51.968;5.918;2022-12-26T03:36:38;121.62;;;113.50;;
22768;SDS011;13001;51.968;5.918;2022-12-26T03:39:14;116.30;;;108.43;;
22768;SDS011;13001;51.968;5.918;2022-12-26T03:41:44;116.43;;;108.60;;
22768;SDS011;13001;51.968;5.918;2022-12-26T03:44:36;113.20;;;105.43;;
22768;SDS011;13001;51.968;5.918;2022-12-26T03:47:23;113.77;;;105.67;;
22768;SDS011;13001;51.968;5.918;2022-12-26T03:50:55;112.35;;;104.72;;
22768;SDS011;13001;51.968;5.918;2022-12-26T03:53:01;119.53;;;111.50;;
22768;SDS011;13001;51.968;5.918;2022-12-26T03:55:57;113.28;;;105.52;;
22768;SDS011;13001;51.968;5.918;2022-12-26T03:58:45;111.22;;;103.42;;
22768;SDS011;13001;51.968;5.918;2022-12-26T04:01:28;108.80;;;101.05;;
22768;SDS011;13001;51.968;5.918;2022-12-26T04:04:15;111.97;;;104.05;;
22768;SDS011;13001;51.968;5.918;2022-12-26T04:07:03;110.65;;;102.75;;
22768;SDS011;13001;51.968;5.918;2022-12-26T04:09:56;105.93;;;98.20;;
22768;SDS011;13001;51.968;5.918;2022-12-26T04:12:36;116.30;;;108.15;;
22768;SDS011;13001;51.968;5.918;2022-12-26T04:15:27;122.28;;;113.52;;
22768;SDS011;13001;51.968;5.918;2022-12-26T04:18:11;116.67;;;108.15;;
22768;SDS011;13001;51.968;5.918;2022-12-26T04:23:33;113.92;;;105.75;;
22768;SDS011;13001;51.968;5.918;2022-12-26T04:26:20;116.17;;;107.92;;
22768;SDS011;13001;51.968;5.918;2022-12-26T04:29:02;120.40;;;111.90;;
22768;SDS011;13001;51.968;5.918;2022-12-26T04:31:50;115.82;;;107.50;;
22768;SDS011;13001;51.968;5.918;2022-12-26T04:34:39;116.17;;;107.93;;
22768;SDS011;13001;51.968;5.918;2022-12-26T04:37:25;114.95;;;107.25;;
22768;SDS011;13001;51.968;5.918;2022-12-26T04:40:15;124.72;;;115.95;;
22768;SDS011;13001;51.968;5.918;2022-12-26T04:42:58;118.75;;;110.52;;
22768;SDS011;13001;51.968;5.918;2022-12-26T04:45:44;121.77;;;113.50;;
22768;SDS011;13001;51.968;5.918;2022-12-26T04:48:11;125.65;;;117.33;;
22768;SDS011;13001;51.968;5.918;2022-12-26T04:50:57;124.78;;;115.95;;
22768;SDS011;13001;51.968;5.918;2022-12-26T04:53:24;125.22;;;116.80;;
22768;SDS011;13001;51.968;5.918;2022-12-26T04:55:51;128.57;;;119.97;;
22768;SDS011;13001;51.968;5.918;2022-12-26T04:58:18;128.02;;;119.53;;
22768;SDS011;13001;51.968;5.918;2022-12-26T05:00:47;135.07;;;126.10;;
22768;SDS011;13001;51.968;5.918;2022-12-26T05:03:15;132.10;;;123.47;;
22768;SDS011;13001;51.968;5.918;2022-12-26T05:06:00;128.70;;;120.33;;
22768;SDS011;13001;51.968;5.918;2022-12-26T05:08:46;127.00;;;118.80;;
22768;SDS011;13001;51.968;5.918;2022-12-26T05:11:32;123.47;;;115.57;;
22768;SDS011;13001;51.968;5.918;2022-12-26T05:13:59;130.95;;;122.58;;
22768;SDS011;13001;51.968;5.918;2022-12-26T05:16:27;131.05;;;122.55;;
22768;SDS011;13001;51.968;5.918;2022-12-26T05:19:13;125.30;;;117.20;;
22768;SDS011;13001;51.968;5.918;2022-12-26T05:21:58;128.47;;;120.28;;
22768;SDS011;13001;51.968;5.918;2022-12-26T05:24:44;123.87;;;115.88;;
22768;SDS011;13001;51.968;5.918;2022-12-26T05:27:38;118.97;;;111.25;;
22768;SDS011;13001;51.968;5.918;2022-12-26T05:30:20;117.30;;;109.83;;
22768;SDS011;13001;51.968;5.918;2022-12-26T05:32:47;118.42;;;110.42;;
22768;SDS011;13001;51.968;5.918;2022-12-26T05:35:32;120.53;;;112.70;;
22768;SDS011;13001;51.968;5.918;2022-12-26T05:38:01;117.75;;;110.17;;
22768;SDS011;13001;51.968;5.918;2022-12-26T05:40:28;115.17;;;107.87;;
22768;SDS011;13001;51.968;5.918;2022-12-26T05:42:56;113.52;;;106.27;;
22768;SDS011;13001;51.968;5.918;2022-12-26T05:45:23;117.00;;;109.48;;
22768;SDS011;13001;51.968;5.918;2022-12-26T05:47:56;112.15;;;105.20;;
22768;SDS011;13001;51.968;5.918;2022-12-26T05:50:19;106.43;;;99.83;;
22768;SDS011;13001;51.968;5.918;2022-12-26T05:52:46;107.43;;;100.80;;
22768;SDS011;13001;51.968;5.918;2022-12-26T05:55:13;105.00;;;98.65;;
22768;SDS011;13001;51.968;5.918;2022-12-26T05:57:41;106.75;;;100.33;;
22768;SDS011;13001;51.968;5.918;2022-12-26T06:00:08;106.33;;;99.63;;
22768;SDS011;13001;51.968;5.918;2022-12-26T06:02:36;110.63;;;103.83;;
22768;SDS011;13001;51.968;5.918;2022-12-26T06:05:03;107.37;;;101.05;;
22768;SDS011;13001;51.968;5.918;2022-12-26T06:07:30;107.90;;;101.40;;
22768;SDS011;13001;51.968;5.918;2022-12-26T06:09:58;107.17;;;100.67;;
22768;SDS011;13001;51.968;5.918;2022-12-26T06:12:25;99.52;;;93.60;;
22768;SDS011;13001;51.968;5.918;2022-12-26T06:14:53;113.28;;;106.55;;
22768;SDS011;13001;51.968;5.918;2022-12-26T06:17:20;108.93;;;102.43;;
22768;SDS011;13001;51.968;5.918;2022-12-26T06:19:48;106.52;;;100.05;;
22768;SDS011;13001;51.968;5.918;2022-12-26T06:22:15;113.62;;;106.65;;
22768;SDS011;13001;51.968;5.918;2022-12-26T06:24:42;112.20;;;105.60;;
22768;SDS011;13001;51.968;5.918;2022-12-26T06:27:09;110.22;;;103.67;;
22768;SDS011;13001;51.968;5.918;2022-12-26T06:29:37;106.20;;;99.77;;
22768;SDS011;13001;51.968;5.918;2022-12-26T06:32:04;106.80;;;100.55;;
22768;SDS011;13001;51.968;5.918;2022-12-26T06:34:31;109.65;;;103.02;;
22768;SDS011;13001;51.968;5.918;2022-12-26T06:36:59;107.80;;;101.25;;
22768;SDS011;13001;51.968;5.918;2022-12-26T06:39:26;105.22;;;99.03;;
22768;SDS011;13001;51.968;5.918;2022-12-26T06:41:53;103.50;;;97.33;;
22768;SDS011;13001;51.968;5.918;2022-12-26T06:44:20;114.60;;;107.87;;
22768;SDS011;13001;51.968;5.918;2022-12-26T06:46:48;113.42;;;106.67;;
22768;SDS011;13001;51.968;5.918;2022-12-26T06:49:15;118.57;;;111.37;;
22768;SDS011;13001;51.968;5.918;2022-12-26T06:51:42;115.67;;;108.83;;
22768;SDS011;13001;51.968;5.918;2022-12-26T06:54:13;112.07;;;105.27;;
22768;SDS011;13001;51.968;5.918;2022-12-26T06:56:40;117.87;;;110.68;;
22768;SDS011;13001;51.968;5.918;2022-12-26T06:59:08;119.50;;;112.05;;
22768;SDS011;13001;51.968;5.918;2022-12-26T07:01:36;118.22;;;111.05;;
22768;SDS011;13001;51.968;5.918;2022-12-26T07:04:03;121.30;;;113.97;;
22768;SDS011;13001;51.968;5.918;2022-12-26T07:06:32;118.60;;;111.37;;
22768;SDS011;13001;51.968;5.918;2022-12-26T07:09:02;122.37;;;114.72;;
22768;SDS011;13001;51.968;5.918;2022-12-26T07:11:30;125.90;;;118.20;;
22768;SDS011;13001;51.968;5.918;2022-12-26T07:13:58;120.47;;;113.30;;
22768;SDS011;13001;51.968;5.918;2022-12-26T07:16:25;125.38;;;117.50;;
22768;SDS011;13001;51.968;5.918;2022-12-26T07:18:53;129.35;;;121.37;;
22768;SDS011;13001;51.968;5.918;2022-12-26T07:21:21;124.20;;;116.28;;
22768;SDS011;13001;51.968;5.918;2022-12-26T07:23:49;127.60;;;119.70;;
22768;SDS011;13001;51.968;5.918;2022-12-26T07:26:16;122.67;;;115.17;;
22768;SDS011;13001;51.968;5.918;2022-12-26T07:28:44;118.87;;;111.65;;
22768;SDS011;13001;51.968;5.918;2022-12-26T07:31:15;125.33;;;117.72;;
22768;SDS011;13001;51.968;5.918;2022-12-26T07:33:45;125.02;;;117.33;;
22768;SDS011;13001;51.968;5.918;2022-12-26T07:36:11;126.47;;;118.67;;
22768;SDS011;13001;51.968;5.918;2022-12-26T07:38:38;126.10;;;118.22;;
22768;SDS011;13001;51.968;5.918;2022-12-26T07:41:06;130.18;;;121.97;;
22768;SDS011;13001;51.968;5.918;2022-12-26T07:43:51;125.53;;;117.72;;
22768;SDS011;13001;51.968;5.918;2022-12-26T07:46:19;135.07;;;126.53;;
22768;SDS011;13001;51.968;5.918;2022-12-26T07:48:46;133.32;;;124.90;;
22768;SDS011;13001;51.968;5.918;2022-12-26T07:51:13;139.67;;;130.97;;
22768;SDS011;13001;51.968;5.918;2022-12-26T07:53:41;138.75;;;130.40;;
22768;SDS011;13001;51.968;5.918;2022-12-26T07:56:08;151.05;;;141.55;;
22768;SDS011;13001;51.968;5.918;2022-12-26T07:58:35;169.07;;;158.47;;
22768;SDS011;13001;51.968;5.918;2022-12-26T08:01:03;168.07;;;157.67;;
22768;SDS011;13001;51.968;5.918;2022-12-26T08:03:32;183.42;;;172.05;;
22768;SDS011;13001;51.968;5.918;2022-12-26T08:06:00;256.68;;;241.53;;
22768;SDS011;13001;51.968;5.918;2022-12-26T08:08:27;257.35;;;242.20;;
22768;SDS011;13001;51.968;5.918;2022-12-26T08:11:01;311.27;;;292.80;;
22768;SDS011;13001;51.968;5.918;2022-12-26T08:13:29;303.40;;;285.05;;
22768;SDS011;13001;51.968;5.918;2022-12-26T08:15:56;296.52;;;278.88;;
22768;SDS011;13001;51.968;5.918;2022-12-26T08:18:24;287.48;;;269.82;;
22768;SDS011;13001;51.968;5.918;2022-12-26T08:20:51;281.93;;;264.93;;
22768;SDS011;13001;51.968;5.918;2022-12-26T08:23:19;284.18;;;266.77;;
22768;SDS011;13001;51.968;5.918;2022-12-26T08:25:46;278.65;;;261.77;;
22768;SDS011;13001;51.968;5.918;2022-12-26T08:28:13;294.67;;;276.77;;
22768;SDS011;13001;51.968;5.918;2022-12-26T08:30:41;293.95;;;276.27;;
22768;SDS011;13001;51.968;5.918;2022-12-26T08:33:08;298.65;;;280.83;;
22768;SDS011;13001;51.968;5.918;2022-12-26T08:35:36;315.90;;;297.35;;
22768;SDS011;13001;51.968;5.918;2022-12-26T08:38:03;271.23;;;255.10;;
22768;SDS011;13001;51.968;5.918;2022-12-26T08:40:32;226.43;;;213.23;;
22768;SDS011;13001;51.968;5.918;2022-12-26T08:42:59;232.07;;;218.30;;
22768;SDS011;13001;51.968;5.918;2022-12-26T08:45:26;225.07;;;211.90;;
22768;SDS011;13001;51.968;5.918;2022-12-26T08:47:54;220.70;;;207.50;;
22768;SDS011;13001;51.968;5.918;2022-12-26T08:50:21;239.13;;;224.90;;
22768;SDS011;13001;51.968;5.918;2022-12-26T08:52:48;201.17;;;188.40;;
22768;SDS011;13001;51.968;5.918;2022-12-26T08:55:16;249.63;;;233.97;;
22768;SDS011;13001;51.968;5.918;2022-12-26T08:57:43;201.13;;;187.73;;
22768;SDS011;13001;51.968;5.918;2022-12-26T09:00:11;229.97;;;214.47;;
22768;SDS011;13001;51.968;5.918;2022-12-26T09:02:38;254.67;;;237.97;;
22768;SDS011;13001;51.968;5.918;2022-12-26T09:05:06;298.05;;;277.68;;
22768;SDS011;13001;51.968;5.918;2022-12-26T09:07:33;297.60;;;278.10;;
22768;SDS011;13001;51.968;5.918;2022-12-26T09:10:00;238.52;;;223.07;;
22768;SDS011;13001;51.968;5.918;2022-12-26T09:12:28;315.57;;;292.30;;
22768;SDS011;13001;51.968;5.918;2022-12-26T09:14:55;351.47;;;322.20;;
22768;SDS011;13001;51.968;5.918;2022-12-26T09:17:22;341.50;;;312.95;;
22768;SDS011;13001;51.968;5.918;2022-12-26T09:19:51;478.27;;;442.48;;
22768;SDS011;13001;51.968;5.918;2022-12-26T09:22:19;477.07;;;440.92;;
22768;SDS011;13001;51.968;5.918;2022-12-26T09:25:04;286.63;;;267.60;;
22768;SDS011;13001;51.968;5.918;2022-12-26T09:27:31;303.57;;;283.27;;
22768;SDS011;13001;51.968;5.918;2022-12-26T09:29:58;288.13;;;269.27;;
22768;SDS011;13001;51.968;5.918;2022-12-26T09:32:26;277.17;;;259.17;;
22768;SDS011;13001;51.968;5.918;2022-12-26T09:34:53;278.20;;;259.90;;
22768;SDS011;13001;51.968;5.918;2022-12-26T09:37:20;215.83;;;202.13;;
22768;SDS011;13001;51.968;5.918;2022-12-26T09:39:47;209.90;;;196.47;;
22768;SDS011;13001;51.968;5.918;2022-12-26T09:45:09;171.17;;;160.30;;
22768;SDS011;13001;51.968;5.918;2022-12-26T09:47:36;149.63;;;139.80;;
22768;SDS011;13001;51.968;5.918;2022-12-26T09:50:08;150.37;;;140.03;;
22768;SDS011;13001;51.968;5.918;2022-12-26T09:52:42;140.87;;;131.03;;
22768;SDS011;13001;51.968;5.918;2022-12-26T09:55:24;156.53;;;145.30;;
22768;SDS011;13001;51.968;5.918;2022-12-26T09:57:44;175.60;;;163.27;;
22768;SDS011;13001;51.968;5.918;2022-12-26T10:00:06;178.27;;;166.37;;
22768;SDS011;13001;51.968;5.918;2022-12-26T10:02:33;173.73;;;161.77;;
22768;SDS011;13001;51.968;5.918;2022-12-26T10:05:01;185.27;;;173.17;;
22768;SDS011;13001;51.968;5.918;2022-12-26T10:07:34;215.77;;;202.03;;
22768;SDS011;13001;51.968;5.918;2022-12-26T10:12:36;221.80;;;207.10;;
22768;SDS011;13001;51.968;5.918;2022-12-26T10:17:55;245.67;;;229.37;;
22768;SDS011;13001;51.968;5.918;2022-12-26T10:20:20;245.70;;;229.80;;
22768;SDS011;13001;51.968;5.918;2022-12-26T10:22:54;261.37;;;243.87;;
22768;SDS011;13001;51.968;5.918;2022-12-26T10:25:27;224.60;;;210.33;;
22768;SDS011;13001;51.968;5.918;2022-12-26T10:27:53;262.10;;;245.10;;
22768;SDS011;13001;51.968;5.918;2022-12-26T10:30:24;254.33;;;237.77;;
22768;SDS011;13001;51.968;5.918;2022-12-26T10:33:00;252.03;;;236.00;;
22768;SDS011;13001;51.968;5.918;2022-12-26T10:35:28;250.10;;;234.07;;
22768;SDS011;13001;51.968;5.918;2022-12-26T10:37:57;275.27;;;257.87;;
22768;SDS011;13001;51.968;5.918;2022-12-26T10:40:36;244.30;;;228.73;;
22768;SDS011;13001;51.968;5.918;2022-12-26T10:43:13;256.23;;;239.90;;
22768;SDS011;13001;51.968;5.918;2022-12-26T10:45:36;234.33;;;219.40;;
22768;SDS011;13001;51.968;5.918;2022-12-26T10:48:03;220.27;;;206.63;;
22768;SDS011;13001;51.968;5.918;2022-12-26T10:50:31;223.97;;;209.30;;
22768;SDS011;13001;51.968;5.918;2022-12-26T10:53:02;230.33;;;215.23;;
22768;SDS011;13001;51.968;5.918;2022-12-26T10:55:31;239.67;;;224.20;;
22768;SDS011;13001;51.968;5.918;2022-12-26T10:58:20;231.30;;;216.30;;
22768;SDS011;13001;51.968;5.918;2022-12-26T11:00:27;241.23;;;225.47;;
22768;SDS011;13001;51.968;5.918;2022-12-26T11:03:04;245.23;;;229.03;;
22768;SDS011;13001;51.968;5.918;2022-12-26T11:05:33;225.60;;;210.33;;
22768;SDS011;13001;51.968;5.918;2022-12-26T11:10:35;266.07;;;247.37;;
22768;SDS011;13001;51.968;5.918;2022-12-26T11:13:06;282.93;;;263.63;;
22768;SDS011;13001;51.968;5.918;2022-12-26T11:15:36;376.23;;;343.85;;
22768;SDS011;13001;51.968;5.918;2022-12-26T11:18:25;216.80;;;200.80;;
22768;SDS011;13001;51.968;5.918;2022-12-26T11:20:34;243.37;;;225.90;;
22768;SDS011;13001;51.968;5.918;2022-12-26T11:23:12;249.23;;;230.93;;
22768;SDS011;13001;51.968;5.918;2022-12-26T11:25:53;250.83;;;232.63;;
22768;SDS011;13001;51.968;5.918;2022-12-26T11:28:39;277.07;;;257.83;;
22768;SDS011;13001;51.968;5.918;2022-12-26T11:30:46;272.40;;;253.40;;
22768;SDS011;13001;51.968;5.918;2022-12-26T11:33:20;269.90;;;251.40;;
22768;SDS011;13001;51.968;5.918;2022-12-26T11:38:31;267.57;;;249.73;;
22768;SDS011;13001;51.968;5.918;2022-12-26T11:41:12;282.43;;;263.33;;
22768;SDS011;13001;51.968;5.918;2022-12-26T11:43:54;272.37;;;252.97;;
22768;SDS011;13001;51.968;5.918;2022-12-26T11:46:29;192.33;;;179.17;;
22768;SDS011;13001;51.968;5.918;2022-12-26T11:48:51;261.60;;;243.40;;
22768;SDS011;13001;51.968;5.918;2022-12-26T11:51:30;267.50;;;249.53;;
22768;SDS011;13001;51.968;5.918;2022-12-26T11:53:47;284.20;;;263.27;;
22768;SDS011;13001;51.968;5.918;2022-12-26T11:56:14;287.87;;;267.13;;
22768;SDS011;13001;51.968;5.918;2022-12-26T11:58:43;295.17;;;274.30;;
22768;SDS011;13001;51.968;5.918;2022-12-26T12:01:11;313.83;;;291.20;;
22768;SDS011;13001;51.968;5.918;2022-12-26T12:03:41;341.23;;;316.37;;
22768;SDS011;13001;51.968;5.918;2022-12-26T12:11:26;269.83;;;250.33;;
22768;SDS011;13001;51.968;5.918;2022-12-26T12:21:42;234.60;;;217.35;;
22768;SDS011;13001;51.968;5.918;2022-12-26T12:26:57;270.02;;;250.38;;
22768;SDS011;13001;51.968;5.918;2022-12-26T12:30:23;305.90;;;283.05;;
22768;SDS011;13001;51.968;5.918;2022-12-26T12:32:06;321.80;;;298.10;;
22768;SDS011;13001;51.968;5.918;2022-12-26T12:42:36;290.57;;;270.27;;
22768;SDS011;13001;51.968;5.918;2022-12-26T12:45:08;334.50;;;311.25;;
22768;SDS011;13001;51.968;5.918;2022-12-26T12:55:37;338.60;;;317.25;;
22768;SDS011;13001;51.968;5.918;2022-12-26T12:58:11;341.77;;;319.93;;
22768;SDS011;13001;51.968;5.918;2022-12-26T13:00:55;355.95;;;332.98;;
22768;SDS011;13001;51.968;5.918;2022-12-26T13:03:03;359.30;;;336.30;;
22768;SDS011;13001;51.968;5.918;2022-12-26T13:05:48;359.50;;;336.65;;
22768;SDS011;13001;51.968;5.918;2022-12-26T13:10:45;385.95;;;361.25;;
22768;SDS011;13001;51.968;5.918;2022-12-26T13:13:19;389.68;;;364.02;;
22768;SDS011;13001;51.968;5.918;2022-12-26T13:15:47;379.93;;;355.00;;
22768;SDS011;13001;51.968;5.918;2022-12-26T13:18:16;391.95;;;366.17;;
22768;SDS011;13001;51.968;5.918;2022-12-26T13:20:46;387.77;;;362.25;;
22768;SDS011;13001;51.968;5.918;2022-12-26T13:23:17;385.48;;;360.25;;
22768;SDS011;13001;51.968;5.918;2022-12-26T13:25:47;369.75;;;346.07;;
22768;SDS011;13001;51.968;5.918;2022-12-26T13:28:16;370.35;;;346.20;;
22768;SDS011;13001;51.968;5.918;2022-12-26T13:30:43;359.83;;;336.43;;
22768;SDS011;13001;51.968;5.918;2022-12-26T13:33:11;375.95;;;351.32;;
22768;SDS011;13001;51.968;5.918;2022-12-26T13:38:18;373.55;;;349.37;;
22768;SDS011;13001;51.968;5.918;2022-12-26T13:40:58;386.55;;;360.98;;
22768;SDS011;13001;51.968;5.918;2022-12-26T13:43:28;374.50;;;350.05;;
22768;SDS011;13001;51.968;5.918;2022-12-26T13:46:31;379.57;;;354.30;;
22768;SDS011;13001;51.968;5.918;2022-12-26T13:48:45;379.55;;;353.98;;
22768;SDS011;13001;51.968;5.918;2022-12-26T13:51:56;370.35;;;345.52;;
22768;SDS011;13001;51.968;5.918;2022-12-26T13:53:44;384.77;;;358.53;;
22768;SDS011;13001;51.968;5.918;2022-12-26T14:01:30;421.75;;;392.77;;
22768;SDS011;13001;51.968;5.918;2022-12-26T14:04:01;407.08;;;379.55;;
22768;SDS011;13001;51.968;5.918;2022-12-26T14:06:29;403.60;;;375.48;;
22768;SDS011;13001;51.968;5.918;2022-12-26T14:11:45;392.55;;;365.10;;
22768;SDS011;13001;51.968;5.918;2022-12-26T14:14:18;423.93;;;394.97;;
22768;SDS011;13001;51.968;5.918;2022-12-26T14:16:44;443.13;;;412.60;;
22768;SDS011;13001;51.968;5.918;2022-12-26T14:19:16;459.75;;;428.23;;
22768;SDS011;13001;51.968;5.918;2022-12-26T14:21:48;436.70;;;406.70;;
22768;SDS011;13001;51.968;5.918;2022-12-26T14:25:01;459.13;;;427.62;;
22768;SDS011;13001;51.968;5.918;2022-12-26T14:29:33;467.03;;;434.27;;
22768;SDS011;13001;51.968;5.918;2022-12-26T14:34:37;481.27;;;447.05;;
22768;SDS011;13001;51.968;5.918;2022-12-26T14:44:58;465.10;;;431.40;;
22768;SDS011;13001;51.968;5.918;2022-12-26T14:47:46;467.17;;;433.20;;
22768;SDS011;13001;51.968;5.918;2022-12-26T14:58:35;409.85;;;380.57;;
22768;SDS011;13001;51.968;5.918;2022-12-26T15:09:10;331.50;;;308.07;;
22768;SDS011;13001;51.968;5.918;2022-12-26T15:11:58;285.35;;;266.75;;
22768;SDS011;13001;51.968;5.918;2022-12-26T15:14:28;326.97;;;303.50;;
22768;SDS011;13001;51.968;5.918;2022-12-26T15:30:09;268.13;;;248.70;;
22768;SDS011;13001;51.968;5.918;2022-12-26T15:40:44;263.00;;;242.80;;
22768;SDS011;13001;51.968;5.918;2022-12-26T15:43:24;246.70;;;227.57;;
22768;SDS011;13001;51.968;5.918;2022-12-26T15:45:48;247.30;;;227.57;;
22768;SDS011;13001;51.968;5.918;2022-12-26T15:51:08;281.80;;;260.07;;
22768;SDS011;13001;51.968;5.918;2022-12-26T15:53:40;271.63;;;250.87;;
22768;SDS011;13001;51.968;5.918;2022-12-26T15:58:45;332.40;;;307.43;;
22768;SDS011;13001;51.968;5.918;2022-12-26T16:01:10;336.30;;;311.37;;
22768;SDS011;13001;51.968;5.918;2022-12-26T16:03:46;337.03;;;312.63;;
22768;SDS011;13001;51.968;5.918;2022-12-26T16:09:03;362.87;;;336.83;;
22768;SDS011;13001;51.968;5.918;2022-12-26T16:11:29;351.13;;;325.70;;
22768;SDS011;13001;51.968;5.918;2022-12-26T16:13:58;362.27;;;335.80;;
22768;SDS011;13001;51.968;5.918;2022-12-26T16:18:54;341.50;;;316.53;;
22768;SDS011;13001;51.968;5.918;2022-12-26T16:21:23;321.60;;;297.97;;
22768;SDS011;13001;51.968;5.918;2022-12-26T16:24:09;300.93;;;279.03;;
22768;SDS011;13001;51.968;5.918;2022-12-26T16:26:42;300.57;;;277.37;;
22768;SDS011;13001;51.968;5.918;2022-12-26T16:29:06;318.90;;;294.53;;
22768;SDS011;13001;51.968;5.918;2022-12-26T16:31:33;324.37;;;300.30;;
22768;SDS011;13001;51.968;5.918;2022-12-26T16:34:01;320.93;;;297.37;;
22768;SDS011;13001;51.968;5.918;2022-12-26T16:36:28;323.87;;;300.37;;
22768;SDS011;13001;51.968;5.918;2022-12-26T16:38:57;319.73;;;296.47;;